Home   Weather   Germany   Düsseldorf   Past weeks
Flag for Germany

Past Weather in Düsseldorf, North Rhine-Westphalia, Germany — Yesterday and Last 2 Weeks

Currently: 70 °F. Passing clouds. (Weather station: Duesseldorf, Germany). See more current weather

Past Weather in Düsseldorf — Graph

°F

Düsseldorf Temperature Yesterday

Maximum temperature yesterday: 81 °F (at 5:50 pm)
Minimum temperature yesterday: 52 °F (at 3:50 am)
Average temperature yesterday: 68 °F

High & Low Weather Summary for the Past Weeks

 TemperatureHumidityPressure
High93 °F (Jun 18, 4:50 pm)100% (Jun 26, 4:50 am)30.21 "Hg (Jun 26, 4:50 am)
Low46 °F (Jun 21, 5:20 am)28% (Jun 22, 4:50 pm)29.71 "Hg (Jun 19, 3:20 am)
Average68 °F64%29.95 "Hg
* Reported Jun 18 8:20 am — Jul 3 8:50 am, Düsseldorf. Weather by CustomWeather, © 2022

Note: Actual official high and low records may vary slightly from our data, if they occured in-between our weather recording intervals... More about our weather records

Düsseldorf Weather History for the Previous 24 Hours

Scroll right to see more
 ConditionsComfort  
Time TempWeatherWind HumidityBarometerVisibility
8:50 am
Sun, Jul 3
68 °FPassing clouds.3 mph60%30.07 "HgN/A
8:20 am68 °FSunny.2 mph64%30.07 "Hg10 mi
7:50 am66 °FPassing clouds.5 mph68%30.07 "HgN/A
6:50 am63 °FPassing clouds.3 mph73%30.04 "HgN/A
6:20 am59 °FPassing clouds.5 mph82%30.04 "HgN/A
5:50 am57 °FSunny.2 mph88%30.04 "Hg10 mi
5:20 am57 °FClear.1 mph88%30.04 "Hg10 mi
4:50 am57 °FClear.1 mph88%30.04 "Hg10 mi
4:20 am57 °FClear.1 mph88%30.04 "Hg10 mi
3:50 am59 °FClear.1 mph82%30.04 "Hg10 mi
3:20 am59 °FClear.2 mph82%30.04 "Hg10 mi
2:50 am61 °FClear.2 mph77%30.04 "Hg10 mi
1:20 am61 °FClear.2 mph77%30.07 "Hg10 mi
12:50 am64 °FClear.2 mph68%30.04 "Hg10 mi
12:20 am66 °FClear.5 mph60%30.07 "Hg10 mi
11:50 pm
Sat, Jul 2
68 °FClear.6 mph56%30.04 "Hg10 mi
11:20 pm68 °FClear.3 mph56%30.04 "Hg10 mi
10:50 pm70 °FPassing clouds.6 mph53%30.04 "HgN/A
10:20 pm72 °FClear.8 mph50%30.04 "Hg10 mi
9:50 pm73 °FSunny.7 mph47%30.04 "Hg10 mi
9:20 pm75 °FSunny.8 mph44%30.04 "Hg10 mi
8:50 pm77 °FSunny.3 mph42%30.04 "Hg10 mi
7:50 pm79 °FSunny.7 mph37%30.04 "Hg10 mi
7:20 pm81 °FSunny.5 mph32%30.04 "Hg10 mi
6:50 pm81 °FSunny.6 mph32%30.07 "Hg10 mi
6:20 pm81 °FPassing clouds.7 mph34%30.07 "HgN/A
5:50 pm81 °FPassing clouds.12 mph34%30.07 "HgN/A
5:20 pm79 °FPassing clouds.13 mph34%30.07 "HgN/A
4:50 pm79 °FPassing clouds.10 mph34%30.09 "HgN/A
3:50 pm79 °FPassing clouds.12 mph32%30.12 "HgN/A
3:20 pm79 °FSunny.9 mph34%30.12 "Hg10 mi
2:50 pm77 °FPassing clouds.9 mph34%30.12 "HgN/A
2:20 pm75 °FPassing clouds.10 mph36%30.15 "HgN/A
1:50 pm75 °FPassing clouds.10 mph36%30.15 "HgN/A
1:20 pm75 °FPassing clouds.8 mph36%30.15 "HgN/A
12:50 pm73 °FPassing clouds.10 mph38%30.15 "HgN/A
12:20 pm73 °FPassing clouds.9 mph36%30.18 "HgN/A
11:50 am73 °FPassing clouds.8 mph41%30.18 "HgN/A
11:20 am72 °FPassing clouds.7 mph41%30.18 "HgN/A
10:50 am70 °FPassing clouds.7 mph46%30.18 "HgN/A
10:20 am70 °FPassing clouds.8 mph50%30.21 "HgN/A
Weather by CustomWeather, © 2022

See weather overview